Time,TemperatureF,DewpointF,PressureIn,WindDirection,WindDirectionDegrees,WindSpeedMPH,WindSpeedGustMPH,Humidity,HourlyPrecipIn,Conditions,Clouds,dailyrainin,SoftwareType,DateUTC
2013-02-05 00:00:00,36.7,27.5,29.79,SW,226,0.0,0.0,69,0.00,,,0.00,Wunderground v.1.15,2013-02-05 05:00:00,
2013-02-05 00:05:00,36.8,27.2,29.78,SW,226,0.0,0.0,68,0.00,,,0.00,Wunderground v.1.15,2013-02-05 05:05:00,
2013-02-05 00:10:00,37.0,27.1,29.77,SW,226,0.0,0.0,67,0.00,,,0.00,Wunderground v.1.15,2013-02-05 05:10:00,
2013-02-05 00:15:00,37.2,26.9,29.77,SW,226,0.0,0.0,66,0.00,,,0.00,Wunderground v.1.15,2013-02-05 05:15:00,
2013-02-05 00:20:00,37.2,27.2,29.77,SW,226,0.0,0.0,67,0.00,,,0.00,Wunderground v.1.15,2013-02-05 05:20:00,
2013-02-05 00:30:00,37.5,27.9,29.77,SW,226,0.0,0.0,68,0.00,,,0.00,Wunderground v.1.15,2013-02-05 05:30:00,
2013-02-05 00:35:00,38.0,27.3,29.76,SW,226,0.0,0.0,65,0.00,,,0.00,Wunderground v.1.15,2013-02-05 05:35:00,
2013-02-05 00:40:00,38.7,27.2,29.76,SW,226,0.0,0.0,63,0.00,,,0.00,Wunderground v.1.15,2013-02-05 05:40:00,
2013-02-05 00:45:00,39.0,27.1,29.76,SW,226,0.0,0.0,62,0.00,,,0.00,Wunderground v.1.15,2013-02-05 05:45:00,
2013-02-05 00:55:00,37.3,28.8,29.76,SW,226,0.0,0.0,71,0.00,,,0.00,Wunderground v.1.15,2013-02-05 05:55:00,
2013-02-05 01:05:00,37.1,27.2,29.76,SW,226,0.0,0.0,67,0.00,,,0.00,Wunderground v.1.15,2013-02-05 06:05:00,
2013-02-05 01:10:00,38.1,27.0,29.75,SW,226,0.0,0.0,64,0.00,,,0.00,Wunderground v.1.15,2013-02-05 06:10:00,
2013-02-05 01:15:00,38.5,27.0,29.75,SW,226,1.0,1.0,63,0.00,,,0.00,Wunderground v.1.15,2013-02-05 06:15:00,
2013-02-05 01:25:00,39.0,26.3,29.76,SW,226,1.0,2.0,60,0.00,,,0.00,Wunderground v.1.15,2013-02-05 06:25:00,
2013-02-05 01:30:00,39.1,26.4,29.75,SW,226,1.0,1.0,60,0.00,,,0.00,Wunderground v.1.15,2013-02-05 06:30:00,
2013-02-05 01:35:00,39.2,26.5,29.75,SW,226,1.0,1.0,60,0.00,,,0.00,Wunderground v.1.15,2013-02-05 06:35:00,
2013-02-05 01:45:00,38.5,25.8,29.75,SW,226,1.0,2.0,60,0.00,,,0.00,Wunderground v.1.15,2013-02-05 06:45:00,
2013-02-05 01:55:00,38.7,26.8,29.75,SW,226,2.0,4.0,62,0.00,,,0.00,Wunderground v.1.15,2013-02-05 06:55:00,
2013-02-05 02:05:00,39.0,25.9,29.75,SW,227,4.0,4.0,59,0.00,,,0.00,Wunderground v.1.15,2013-02-05 07:05:00,
2013-02-05 02:10:00,38.3,26.4,29.75,SW,226,3.0,4.0,62,0.00,,,0.00,Wunderground v.1.15,2013-02-05 07:10:00,
2013-02-05 02:15:00,38.5,25.8,29.75,SW,227,3.0,5.0,60,0.00,,,0.00,Wunderground v.1.15,2013-02-05 07:15:00,
2013-02-05 02:25:00,39.0,26.3,29.74,SW,227,3.0,4.0,60,0.00,,,0.00,Wunderground v.1.15,2013-02-05 07:25:00,
2013-02-05 02:30:00,37.5,26.4,29.75,SW,227,2.0,2.0,64,0.00,,,0.00,Wunderground v.1.15,2013-02-05 07:30:00,
2013-02-05 02:40:00,38.8,26.1,29.74,SW,227,1.0,1.0,60,0.00,,,0.00,Wunderground v.1.15,2013-02-05 07:40:00,
2013-02-05 02:45:00,38.0,26.9,29.75,SW,227,1.0,2.0,64,0.00,,,0.00,Wunderground v.1.15,2013-02-05 07:45:00,
2013-02-05 02:55:00,38.2,26.3,29.74,SW,227,1.0,3.0,62,0.00,,,0.00,Wunderground v.1.15,2013-02-05 07:55:00,
2013-02-05 03:05:00,36.6,26.7,29.74,SW,227,2.0,2.0,67,0.00,,,0.00,Wunderground v.1.15,2013-02-05 08:05:00,
2013-02-05 03:10:00,36.4,26.1,29.74,SW,230,2.0,3.0,66,0.00,,,0.00,Wunderground v.1.15,2013-02-05 08:10:00,
2013-02-05 03:20:00,37.1,26.8,29.73,SW,230,3.0,4.0,66,0.00,,,0.00,Wunderground v.1.15,2013-02-05 08:20:00,
2013-02-05 03:25:00,37.5,26.4,29.73,SW,232,3.0,5.0,64,0.00,,,0.00,Wunderground v.1.15,2013-02-05 08:25:00,
2013-02-05 03:30:00,38.4,26.5,29.73,SW,234,4.0,4.0,62,0.00,,,0.00,Wunderground v.1.15,2013-02-05 08:30:00,
2013-02-05 03:35:00,39.1,26.8,29.73,SW,234,4.0,4.0,61,0.00,,,0.00,Wunderground v.1.15,2013-02-05 08:35:00,
2013-02-05 03:45:00,38.4,27.3,29.73,SW,234,4.0,4.0,64,0.00,,,0.00,Wunderground v.1.15,2013-02-05 08:45:00,
2013-02-05 03:55:00,38.4,26.9,29.72,SW,233,4.0,5.0,63,0.00,,,0.00,Wunderground v.1.15,2013-02-05 08:55:00,
2013-02-05 04:00:00,37.7,27.0,29.72,SW,233,3.0,3.0,65,0.00,,,0.00,Wunderground v.1.15,2013-02-05 09:00:00,
2013-02-05 04:05:00,36.6,26.3,29.73,SW,233,2.0,3.0,66,0.00,,,0.00,Wunderground v.1.15,2013-02-05 09:05:00,
2013-02-05 04:10:00,34.7,26.6,29.73,SW,233,1.0,1.0,72,0.00,,,0.00,Wunderground v.1.15,2013-02-05 09:10:00,
2013-02-05 04:15:00,33.7,26.6,29.73,SW,233,0.0,1.0,75,0.00,,,0.00,Wunderground v.1.15,2013-02-05 09:15:00,
2013-02-05 04:25:00,34.4,27.0,29.74,SW,233,0.0,0.0,74,0.00,,,0.00,Wunderground v.1.15,2013-02-05 09:25:00,
2013-02-05 04:35:00,35.5,27.4,29.73,SW,233,0.0,0.0,72,0.00,,,0.00,Wunderground v.1.15,2013-02-05 09:35:00,
2013-02-05 04:40:00,36.1,27.6,29.73,SW,233,1.0,3.0,71,0.00,,,0.00,Wunderground v.1.15,2013-02-05 09:40:00,
2013-02-05 04:45:00,37.0,28.5,29.74,SW,233,2.0,3.0,71,0.00,,,0.00,Wunderground v.1.15,2013-02-05 09:45:00,
2013-02-05 05:00:00,38.6,28.2,29.73,SW,233,3.0,3.0,66,0.00,,,0.00,Wunderground v.1.15,2013-02-05 10:00:00,
2013-02-05 05:05:00,38.6,28.9,29.74,SW,233,3.0,4.0,68,0.00,,,0.00,Wunderground v.1.15,2013-02-05 10:05:00,
2013-02-05 05:15:00,38.4,28.8,29.74,SW,234,3.0,5.0,68,0.00,,,0.00,Wunderground v.1.15,2013-02-05 10:15:00,
2013-02-05 05:25:00,38.6,28.6,29.74,SW,233,5.0,6.0,67,0.00,,,0.00,Wunderground v.1.15,2013-02-05 10:25:00,
2013-02-05 05:30:00,39.1,28.7,29.74,WSW,253,5.0,9.0,66,0.00,,,0.00,Wunderground v.1.15,2013-02-05 10:30:00,
2013-02-05 05:35:00,39.9,29.1,29.74,SW,233,5.0,9.0,65,0.00,,,0.00,Wunderground v.1.15,2013-02-05 10:35:00,
2013-02-05 05:45:00,41.0,29.0,29.74,WSW,243,5.0,7.0,62,0.00,,,0.00,Wunderground v.1.15,2013-02-05 10:45:00,
2013-02-05 05:55:00,41.5,29.4,29.74,WSW,257,4.0,5.0,62,0.00,,,0.00,Wunderground v.1.15,2013-02-05 10:55:00,
2013-02-05 06:05:00,41.1,30.2,29.74,WSW,242,4.0,5.0,65,0.00,,,0.00,Wunderground v.1.15,2013-02-05 11:05:00,
2013-02-05 06:10:00,41.4,30.1,29.74,WSW,241,4.0,4.0,64,0.00,,,0.00,Wunderground v.1.15,2013-02-05 11:10:00,
2013-02-05 06:15:00,41.6,30.3,29.74,WSW,237,3.0,4.0,64,0.00,,,0.00,Wunderground v.1.15,2013-02-05 11:15:00,
2013-02-05 06:20:00,42.2,30.5,29.74,SW,235,3.0,3.0,63,0.00,,,0.00,Wunderground v.1.15,2013-02-05 11:20:00,
2013-02-05 06:30:00,42.3,30.6,29.75,SW,235,1.0,3.0,63,0.00,,,0.00,Wunderground v.1.15,2013-02-05 11:30:00,
2013-02-05 06:35:00,42.6,30.9,29.74,WSW,240,2.0,3.0,63,0.00,,,0.00,Wunderground v.1.15,2013-02-05 11:35:00,
2013-02-05 06:40:00,42.9,31.2,29.74,West,260,3.0,3.0,63,0.00,,,0.00,Wunderground v.1.15,2013-02-05 11:40:00,
2013-02-05 06:50:00,43.8,31.2,29.74,SW,233,3.0,6.0,61,0.00,,,0.00,Wunderground v.1.15,2013-02-05 11:50:00,
2013-02-05 06:55:00,44.2,31.6,29.74,WSW,238,5.0,6.0,61,0.00,,,0.00,Wunderground v.1.15,2013-02-05 11:55:00,
2013-02-05 07:05:00,44.4,31.8,29.74,WSW,251,5.0,6.0,61,0.00,,,0.00,Wunderground v.1.15,2013-02-05 12:05:00,
2013-02-05 07:10:00,44.5,31.9,29.74,WSW,254,5.0,5.0,61,0.00,,,0.00,Wunderground v.1.15,2013-02-05 12:10:00,
2013-02-05 07:15:00,44.4,32.2,29.75,WSW,241,4.0,7.0,62,0.00,,,0.00,Wunderground v.1.15,2013-02-05 12:15:00,
2013-02-05 07:20:00,44.0,32.2,29.75,WSW,251,5.0,6.0,63,0.00,,,0.00,Wunderground v.1.15,2013-02-05 12:20:00,
2013-02-05 07:35:00,42.7,32.1,29.76,SW,227,5.0,5.0,66,0.00,,,0.00,Wunderground v.1.15,2013-02-05 12:35:00,
2013-02-05 07:40:00,42.4,32.6,29.76,WSW,237,5.0,5.0,68,0.00,,,0.00,Wunderground v.1.15,2013-02-05 12:40:00,
2013-02-05 07:45:00,42.4,32.6,29.76,SW,234,6.0,6.0,68,0.00,,,0.00,Wunderground v.1.15,2013-02-05 12:45:00,
2013-02-05 07:55:00,42.9,32.3,29.77,WSW,253,7.0,7.0,66,0.00,,,0.00,Wunderground v.1.15,2013-02-05 12:55:00,
2013-02-05 08:00:00,43.1,32.5,29.77,West,263,5.0,5.0,66,0.00,,,0.00,Wunderground v.1.15,2013-02-05 13:00:00,
2013-02-05 08:05:00,43.3,32.7,29.78,West,274,4.0,5.0,66,0.00,,,0.00,Wunderground v.1.15,2013-02-05 13:05:00,
2013-02-05 08:15:00,43.8,33.6,29.78,WSW,243,4.0,7.0,67,0.00,,,0.00,Wunderground v.1.15,2013-02-05 13:15:00,
2013-02-05 08:25:00,44.0,34.8,29.78,WSW,251,6.0,11.0,70,0.00,,,0.00,Wunderground v.1.15,2013-02-05 13:25:00,
2013-02-05 08:31:00,44.3,35.1,29.77,WSW,247,5.0,5.0,70,0.00,,,0.00,Wunderground v.1.15,2013-02-05 13:31:00,
2013-02-05 08:40:00,44.1,34.9,29.78,WNW,284,2.0,3.0,70,0.00,,,0.00,Wunderground v.1.15,2013-02-05 13:40:00,
2013-02-05 08:45:00,44.1,34.9,29.77,West,266,3.0,6.0,70,0.00,,,0.00,Wunderground v.1.15,2013-02-05 13:45:00,
2013-02-05 08:55:00,44.4,36.3,29.78,WSW,249,4.0,10.0,73,0.00,,,0.00,Wunderground v.1.15,2013-02-05 13:55:00,
2013-02-05 09:05:00,44.7,36.2,29.78,West,276,6.0,6.0,72,0.00,,,0.00,Wunderground v.1.15,2013-02-05 14:05:00,
2013-02-05 09:10:00,45.0,36.9,29.78,WNW,294,5.0,5.0,73,0.00,,,0.00,Wunderground v.1.15,2013-02-05 14:10:00,
2013-02-05 09:20:00,45.4,36.9,29.78,West,280,3.0,6.0,72,0.00,,,0.00,Wunderground v.1.15,2013-02-05 14:20:00,
2013-02-05 09:30:00,45.4,37.6,29.78,WSW,254,4.0,4.0,74,0.00,,,0.00,Wunderground v.1.15,2013-02-05 14:30:00,
2013-02-05 09:40:00,45.6,38.1,29.79,WSW,258,4.0,4.0,75,0.00,,,0.00,Wunderground v.1.15,2013-02-05 14:40:00,
2013-02-05 09:45:00,45.8,38.3,29.78,WSW,246,3.0,4.0,75,0.00,,,0.00,Wunderground v.1.15,2013-02-05 14:45:00,
2013-02-05 09:50:00,46.1,39.0,29.79,West,268,4.0,4.0,76,0.00,,,0.00,Wunderground v.1.15,2013-02-05 14:50:00,
2013-02-05 10:00:00,46.3,39.1,29.78,WNW,289,4.0,4.0,76,0.00,,,0.00,Wunderground v.1.15,2013-02-05 15:00:00,
2013-02-05 10:05:00,46.4,39.6,29.78,West,272,4.0,5.0,77,0.00,,,0.00,Wunderground v.1.15,2013-02-05 15:05:00,
2013-02-05 10:15:00,46.5,40.0,29.78,West,272,3.0,5.0,78,0.00,,,0.00,Wunderground v.1.15,2013-02-05 15:15:00,
2013-02-05 10:20:00,46.6,39.8,29.78,SW,230,3.0,3.0,77,0.00,,,0.00,Wunderground v.1.15,2013-02-05 15:20:00,
2013-02-05 10:30:00,47.1,40.6,29.78,West,265,3.0,4.0,78,0.00,,,0.00,Wunderground v.1.15,2013-02-05 15:30:00,
2013-02-05 10:35:00,47.2,40.4,29.78,WNW,293,2.0,4.0,77,0.00,,,0.00,Wunderground v.1.15,2013-02-05 15:35:00,
2013-02-05 10:45:00,47.5,40.3,29.78,West,262,3.0,5.0,76,0.00,,,0.00,Wunderground v.1.15,2013-02-05 15:45:00,
2013-02-05 10:55:00,47.7,40.5,29.78,SW,235,3.0,4.0,76,0.00,,,0.00,Wunderground v.1.15,2013-02-05 15:55:00,
2013-02-05 11:00:00,47.8,40.3,29.78,West,273,3.0,3.0,75,0.00,,,0.00,Wunderground v.1.15,2013-02-05 16:00:00,
2013-02-05 11:10:00,48.2,41.0,29.78,WSW,258,4.0,4.0,76,0.00,,,0.00,Wunderground v.1.15,2013-02-05 16:10:00,
2013-02-05 11:16:00,48.6,41.0,29.78,WNW,301,4.0,10.0,75,0.00,,,0.00,Wunderground v.1.15,2013-02-05 16:16:00,
2013-02-05 11:25:00,49.5,41.9,29.78,West,266,4.0,7.0,75,0.00,,,0.00,Wunderground v.1.15,2013-02-05 16:25:00,
2013-02-05 11:30:00,49.8,42.2,29.78,WSW,246,5.0,5.0,75,0.00,,,0.00,Wunderground v.1.15,2013-02-05 16:30:00,
2013-02-05 11:35:00,49.7,41.7,29.78,SW,232,5.0,5.0,74,0.00,,,0.00,Wunderground v.1.15,2013-02-05 16:35:00,
2013-02-05 11:40:00,50.0,42.0,29.78,WSW,249,6.0,6.0,74,0.00,,,0.00,Wunderground v.1.15,2013-02-05 16:40:00,
2013-02-05 11:50:00,50.3,42.7,29.79,WNW,283,5.0,5.0,75,0.00,,,0.00,Wunderground v.1.15,2013-02-05 16:50:00,
2013-02-05 11:55:00,50.0,42.4,29.79,West,281,5.0,5.0,75,0.00,,,0.00,Wunderground v.1.15,2013-02-05 16:55:00,
2013-02-05 12:00:00,49.8,42.5,29.79,WNW,301,4.0,4.0,76,0.00,,,0.00,Wunderground v.1.15,2013-02-05 17:00:00,
2013-02-05 12:05:00,49.8,42.5,29.79,WNW,301,3.0,4.0,76,0.00,,,0.00,Wunderground v.1.15,2013-02-05 17:05:00,
2013-02-05 12:15:00,49.7,42.4,29.78,NW,320,3.0,8.0,76,0.00,,,0.00,Wunderground v.1.15,2013-02-05 17:15:00,
2013-02-05 12:25:00,49.9,42.6,29.78,WNW,294,4.0,4.0,76,0.00,,,0.00,Wunderground v.1.15,2013-02-05 17:25:00,
2013-02-05 12:35:00,50.2,42.9,29.77,WNW,290,3.0,4.0,76,0.00,,,0.00,Wunderground v.1.15,2013-02-05 17:35:00,
2013-02-05 12:40:00,50.4,42.8,29.77,NW,307,3.0,4.0,75,0.00,,,0.00,Wunderground v.1.15,2013-02-05 17:40:00,
2013-02-05 12:50:00,50.9,42.9,29.76,WNW,292,4.0,4.0,74,0.00,,,0.00,Wunderground v.1.15,2013-02-05 17:50:00,
2013-02-05 12:55:00,51.4,43.0,29.76,NW,322,3.0,4.0,73,0.00,,,0.00,Wunderground v.1.15,2013-02-05 17:55:00,
2013-02-05 13:05:00,52.1,43.3,29.75,NW,322,3.0,4.0,72,0.00,,,0.00,Wunderground v.1.15,2013-02-05 18:05:00,
2013-02-05 13:15:00,53.9,45.1,29.74,WSW,241,3.0,6.0,72,0.00,,,0.00,Wunderground v.1.15,2013-02-05 18:15:00,
2013-02-05 13:25:00,54.9,44.5,29.73,WSW,237,7.0,8.0,68,0.00,,,0.00,Wunderground v.1.15,2013-02-05 18:25:00,
2013-02-05 13:35:00,55.9,44.7,29.73,West,264,7.0,7.0,66,0.00,,,0.00,Wunderground v.1.15,2013-02-05 18:35:00,
2013-02-05 13:40:00,55.9,44.3,29.73,SW,232,6.0,6.0,65,0.00,,,0.00,Wunderground v.1.15,2013-02-05 18:40:00,
2013-02-05 13:46:00,55.7,44.5,29.73,WSW,243,5.0,6.0,66,0.00,,,0.00,Wunderground v.1.15,2013-02-05 18:46:00,
2013-02-05 13:55:00,56.0,44.4,29.72,SW,234,6.0,11.0,65,0.00,,,0.00,Wunderground v.1.15,2013-02-05 18:55:00,
2013-02-05 14:05:00,55.8,44.2,29.72,West,259,3.0,8.0,65,0.00,,,0.00,Wunderground v.1.15,2013-02-05 19:05:00,
2013-02-05 14:10:00,57.1,44.2,29.71,WSW,258,5.0,12.0,62,0.00,,,0.00,Wunderground v.1.15,2013-02-05 19:10:00,
2013-02-05 14:16:00,57.7,43.9,29.71,West,278,10.0,12.0,60,0.00,,,0.00,Wunderground v.1.15,2013-02-05 19:16:00,
2013-02-05 14:25:00,57.4,41.8,29.71,SW,216,7.0,11.0,56,0.00,,,0.00,Wunderground v.1.15,2013-02-05 19:25:00,
2013-02-05 14:31:00,57.9,40.9,29.71,West,265,10.0,10.0,53,0.00,,,0.00,Wunderground v.1.15,2013-02-05 19:31:00,
2013-02-05 14:40:00,57.5,40.5,29.71,WSW,251,10.0,14.0,53,0.00,,,0.00,Wunderground v.1.15,2013-02-05 19:40:00,
2013-02-05 14:45:00,57.7,39.7,29.71,SW,231,11.0,13.0,51,0.00,,,0.00,Wunderground v.1.15,2013-02-05 19:45:00,
2013-02-05 14:50:00,57.8,38.2,29.71,SW,222,11.0,13.0,48,0.00,,,0.00,Wunderground v.1.15,2013-02-05 19:50:00,
2013-02-05 15:00:00,57.8,38.2,29.71,WSW,249,11.0,11.0,48,0.00,,,0.00,Wunderground v.1.15,2013-02-05 20:00:00,
2013-02-05 15:10:00,57.8,38.8,29.71,WSW,238,9.0,10.0,49,0.00,,,0.00,Wunderground v.1.15,2013-02-05 20:10:00,
2013-02-05 15:20:00,58.4,41.3,29.71,WSW,253,5.0,5.0,53,0.00,,,0.00,Wunderground v.1.15,2013-02-05 20:20:00,
2013-02-05 15:25:00,58.5,42.4,29.70,WSW,251,5.0,7.0,55,0.00,,,0.00,Wunderground v.1.15,2013-02-05 20:25:00,
2013-02-05 15:35:00,58.2,42.6,29.71,WSW,252,6.0,9.0,56,0.00,,,0.00,Wunderground v.1.15,2013-02-05 20:35:00,
2013-02-05 15:40:00,58.2,42.6,29.71,WSW,240,4.0,9.0,56,0.00,,,0.00,Wunderground v.1.15,2013-02-05 20:40:00,
2013-02-05 15:46:00,57.6,43.8,29.71,SW,230,3.0,4.0,60,0.00,,,0.00,Wunderground v.1.15,2013-02-05 20:46:00,
2013-02-05 15:55:00,56.9,43.6,29.72,SW,234,4.0,6.0,61,0.00,,,0.00,Wunderground v.1.15,2013-02-05 20:55:00,
2013-02-05 16:01:00,57.1,42.9,29.72,WSW,244,5.0,6.0,59,0.00,,,0.00,Wunderground v.1.15,2013-02-05 21:01:00,
2013-02-05 16:10:00,57.1,42.9,29.71,WSW,253,8.0,10.0,59,0.00,,,0.00,Wunderground v.1.15,2013-02-05 21:10:00,
2013-02-05 16:16:00,57.3,42.2,29.71,WSW,243,6.0,6.0,57,0.00,,,0.00,Wunderground v.1.15,2013-02-05 21:16:00,
2013-02-05 16:25:00,57.3,42.6,29.71,South,183,6.0,6.0,58,0.00,,,0.00,Wunderground v.1.15,2013-02-05 21:25:00,
2013-02-05 16:35:00,56.8,43.5,29.71,South,185,6.0,6.0,61,0.00,,,0.00,Wunderground v.1.15,2013-02-05 21:35:00,
2013-02-05 16:40:00,56.1,44.5,29.71,WSW,240,5.0,7.0,65,0.00,,,0.00,Wunderground v.1.15,2013-02-05 21:40:00,
2013-02-05 16:46:00,55.8,44.2,29.71,South,186,4.0,5.0,65,0.00,,,0.00,Wunderground v.1.15,2013-02-05 21:46:00,
2013-02-05 16:55:00,55.1,44.3,29.72,WSW,246,6.0,9.0,67,0.00,,,0.00,Wunderground v.1.15,2013-02-05 21:55:00,
2013-02-05 17:01:00,54.7,44.3,29.72,SW,225,8.0,8.0,68,0.00,,,0.00,Wunderground v.1.15,2013-02-05 22:01:00,
2013-02-05 17:10:00,54.0,44.4,29.72,WSW,256,6.0,7.0,70,0.00,,,0.00,Wunderground v.1.15,2013-02-05 22:10:00,
2013-02-05 17:20:00,53.3,43.8,29.72,SW,228,12.0,12.0,70,0.00,,,0.00,Wunderground v.1.15,2013-02-05 22:20:00,
2013-02-05 17:25:00,53.1,43.9,29.72,SW,231,9.0,12.0,71,0.00,,,0.00,Wunderground v.1.15,2013-02-05 22:25:00,
2013-02-05 17:35:00,52.4,44.0,29.73,SW,233,8.0,8.0,73,0.00,,,0.00,Wunderground v.1.15,2013-02-05 22:35:00,
2013-02-05 17:40:00,52.0,43.6,29.73,SW,234,6.0,6.0,73,0.00,,,0.00,Wunderground v.1.15,2013-02-05 22:40:00,
2013-02-05 17:46:00,51.6,43.6,29.73,WSW,251,5.0,6.0,74,0.00,,,0.00,Wunderground v.1.15,2013-02-05 22:46:00,
2013-02-05 17:55:00,50.8,43.5,29.73,SW,231,5.0,5.0,76,0.00,,,0.00,Wunderground v.1.15,2013-02-05 22:55:00,
2013-02-05 18:01:00,50.5,43.6,29.73,WSW,247,5.0,5.0,77,0.00,,,0.00,Wunderground v.1.15,2013-02-05 23:01:00,
2013-02-05 18:10:00,50.2,43.6,29.74,SW,233,4.0,4.0,78,0.00,,,0.00,Wunderground v.1.15,2013-02-05 23:10:00,
2013-02-05 18:15:00,50.1,43.5,29.74,WSW,242,5.0,5.0,78,0.00,,,0.00,Wunderground v.1.15,2013-02-05 23:15:00,
2013-02-05 18:25:00,50.1,43.8,29.74,SW,230,5.0,5.0,79,0.00,,,0.00,Wunderground v.1.15,2013-02-05 23:25:00,
2013-02-05 18:31:00,50.1,43.5,29.74,SW,231,5.0,5.0,78,0.00,,,0.00,Wunderground v.1.15,2013-02-05 23:31:00,
2013-02-05 18:40:00,49.9,43.6,29.74,SW,228,4.0,5.0,79,0.00,,,0.00,Wunderground v.1.15,2013-02-05 23:40:00,
2013-02-05 18:45:00,50.0,43.4,29.74,SW,216,4.0,5.0,78,0.00,,,0.00,Wunderground v.1.15,2013-02-05 23:45:00,
2013-02-05 18:55:00,49.9,43.3,29.74,WSW,239,3.0,3.0,78,0.00,,,0.00,Wunderground v.1.15,2013-02-05 23:55:00,
2013-02-05 19:00:00,49.6,43.0,29.74,WSW,239,3.0,4.0,78,0.00,,,0.00,Wunderground v.1.15,2013-02-06 00:00:00,
2013-02-05 19:10:00,49.3,43.1,29.75,WSW,239,5.0,5.0,79,0.00,,,0.00,Wunderground v.1.15,2013-02-06 00:10:00,
2013-02-05 19:15:00,49.1,42.9,29.75,SW,226,5.0,7.0,79,0.00,,,0.00,Wunderground v.1.15,2013-02-06 00:15:00,
2013-02-05 19:25:00,49.5,43.6,29.75,WSW,245,6.0,6.0,80,0.00,,,0.00,Wunderground v.1.15,2013-02-06 00:25:00,
2013-02-05 19:30:00,49.2,43.3,29.76,WSW,255,6.0,6.0,80,0.00,,,0.00,Wunderground v.1.15,2013-02-06 00:30:00,
2013-02-05 19:35:00,49.2,43.0,29.76,West,270,5.0,6.0,79,0.00,,,0.00,Wunderground v.1.15,2013-02-06 00:35:00,
2013-02-05 19:40:00,49.2,43.3,29.77,WSW,255,5.0,7.0,80,0.00,,,0.00,Wunderground v.1.15,2013-02-06 00:40:00,
2013-02-05 19:50:00,49.4,43.5,29.76,West,279,5.0,6.0,80,0.00,,,0.00,Wunderground v.1.15,2013-02-06 00:50:00,
2013-02-05 19:55:00,49.4,43.5,29.76,West,280,6.0,8.0,80,0.00,,,0.00,Wunderground v.1.15,2013-02-06 00:55:00,
2013-02-05 20:01:00,49.5,43.3,29.76,WSW,245,6.0,7.0,79,0.00,,,0.00,Wunderground v.1.15,2013-02-06 01:01:00,
2013-02-05 20:10:00,49.6,43.4,29.76,West,274,7.0,10.0,79,0.00,,,0.00,Wunderground v.1.15,2013-02-06 01:10:00,
2013-02-05 20:16:00,49.6,43.4,29.77,West,268,6.0,10.0,79,0.00,,,0.00,Wunderground v.1.15,2013-02-06 01:16:00,
2013-02-05 20:25:00,49.5,43.3,29.76,West,270,6.0,9.0,79,0.00,,,0.00,Wunderground v.1.15,2013-02-06 01:25:00,
2013-02-05 20:31:00,49.3,43.1,29.76,West,263,6.0,6.0,79,0.00,,,0.00,Wunderground v.1.15,2013-02-06 01:31:00,
2013-02-05 20:40:00,49.1,43.2,29.77,West,262,5.0,6.0,80,0.00,,,0.00,Wunderground v.1.15,2013-02-06 01:40:00,
2013-02-05 20:50:00,48.9,43.3,29.77,WSW,255,4.0,5.0,81,0.00,,,0.00,Wunderground v.1.15,2013-02-06 01:50:00,
2013-02-05 20:55:00,49.1,43.5,29.77,WSW,240,5.0,5.0,81,0.00,,,0.00,Wunderground v.1.15,2013-02-06 01:55:00,
2013-02-05 21:05:00,49.2,43.9,29.76,West,268,6.0,7.0,82,0.00,,,0.00,Wunderground v.1.15,2013-02-06 02:05:00,
2013-02-05 21:10:00,49.3,44.0,29.77,West,268,6.0,7.0,82,0.00,,,0.00,Wunderground v.1.15,2013-02-06 02:10:00,
2013-02-05 21:20:00,49.2,43.9,29.77,West,271,6.0,6.0,82,0.00,,,0.00,Wunderground v.1.15,2013-02-06 02:20:00,
2013-02-05 21:25:00,48.9,43.6,29.77,SW,230,5.0,6.0,82,0.00,,,0.00,Wunderground v.1.15,2013-02-06 02:25:00,
2013-02-05 21:30:00,48.7,43.8,29.77,WSW,239,4.0,4.0,83,0.00,,,0.00,Wunderground v.1.15,2013-02-06 02:30:00,
2013-02-05 21:40:00,48.5,43.6,29.77,West,272,4.0,4.0,83,0.00,,,0.00,Wunderground v.1.15,2013-02-06 02:40:00,
2013-02-05 21:50:00,48.3,43.4,29.77,West,262,3.0,3.0,83,0.00,,,0.00,Wunderground v.1.15,2013-02-06 02:50:00,
2013-02-05 21:55:00,48.2,43.6,29.77,WSW,257,3.0,4.0,84,0.00,,,0.00,Wunderground v.1.15,2013-02-06 02:55:00,
2013-02-05 22:00:00,47.8,42.9,29.78,West,261,3.0,3.0,83,0.00,,,0.00,Wunderground v.1.15,2013-02-06 03:00:00,
2013-02-05 22:10:00,46.8,41.9,29.78,SW,234,2.0,2.0,83,0.00,,,0.00,Wunderground v.1.15,2013-02-06 03:10:00,
2013-02-05 22:15:00,45.3,41.1,29.78,SW,234,1.0,2.0,85,0.00,,,0.00,Wunderground v.1.15,2013-02-06 03:15:00,
2013-02-05 22:25:00,45.0,41.4,29.79,SW,234,0.0,1.0,87,0.00,,,0.00,Wunderground v.1.15,2013-02-06 03:25:00,
2013-02-05 22:35:00,44.9,42.1,29.79,WNW,282,2.0,3.0,90,0.00,,,0.00,Wunderground v.1.15,2013-02-06 03:35:00,
2013-02-05 22:40:00,45.3,42.2,29.79,WNW,282,2.0,2.0,89,0.00,,,0.00,Wunderground v.1.15,2013-02-06 03:40:00,
2013-02-05 22:45:00,45.9,42.8,29.79,WNW,284,1.0,3.0,89,0.00,,,0.00,Wunderground v.1.15,2013-02-06 03:45:00,
2013-02-05 22:55:00,45.1,39.9,29.79,WNW,303,1.0,2.0,82,0.00,,,0.00,Wunderground v.1.15,2013-02-06 03:55:00,
2013-02-05 23:05:00,43.7,39.8,29.79,WNW,303,0.0,0.0,86,0.00,,,0.00,Wunderground v.1.15,2013-02-06 04:05:00,
2013-02-05 23:10:00,43.8,40.8,29.79,WNW,303,0.0,2.0,89,0.00,,,0.00,Wunderground v.1.15,2013-02-06 04:10:00,
2013-02-05 23:15:00,44.3,41.3,29.79,WNW,302,1.0,2.0,89,0.00,,,0.00,Wunderground v.1.15,2013-02-06 04:15:00,
2013-02-05 23:20:00,45.1,41.8,29.79,NW,304,1.0,1.0,88,0.00,,,0.00,Wunderground v.1.15,2013-02-06 04:20:00,
2013-02-05 23:30:00,46.4,41.8,29.78,WNW,297,2.0,2.0,84,0.00,,,0.00,Wunderground v.1.15,2013-02-06 04:30:00,
2013-02-05 23:40:00,47.0,41.8,29.78,NW,322,2.0,2.0,82,0.00,,,0.00,Wunderground v.1.15,2013-02-06 04:40:00,
2013-02-05 23:50:00,47.1,41.6,29.78,NW,324,1.0,1.0,81,0.00,,,0.00,Wunderground v.1.15,2013-02-06 04:50:00,
2013-02-05 23:55:00,45.6,40.4,29.79,NW,316,1.0,1.0,82,0.00,,,0.00,Wunderground v.1.15,2013-02-06 04:55:00,